CST,Max TemperatureF,Mean TemperatureF,Min TemperatureF,Max Dew PointF,MeanDew PointF,Min DewpointF,Max Humidity, Mean Humidity, Min Humidity, Max Sea Level PressureIn, Mean Sea Level PressureIn, Min Sea Level PressureIn, Max VisibilityMiles, Mean VisibilityMiles, Min VisibilityMiles, Max Wind SpeedMPH, Mean Wind SpeedMPH, Max Gust SpeedMPH,PrecipitationIn, CloudCover, Events, WindDirDegrees
2014-1-1,1,-10,-20,-8,-14,-28,80,71,61,30.36,30.30,30.26,10,10,10,6,0,,0.00,7,,28
2014-1-2,4,-8,-19,-7,-14,-26,80,72,56,30.31,30.28,30.24,10,10,7,13,1,18,0.00,6,,3
2014-1-3,16,-1,-18,11,-6,-25,82,71,59,30.25,29.87,29.45,10,9,1,16,5,26,0.00,5,Snow,194
2014-1-4,21,8,-5,20,6,-10,96,79,65,30.01,29.70,29.41,10,6,1,20,9,25,0.00,6,Snow,272
2014-1-5,0,-6,-14,-6,-15,-22,82,70,52,30.13,30.06,30.00,10,10,10,10,5,,0.00,2,Snow,310
2014-1-6,-17,-22,-27,-28,-31,-37,67,61,53,29.92,29.88,29.84,10,10,3,15,7,22,0.00,3,,277
2014-1-7,-4,-14,-24,-16,-25,-32,76,67,58,30.08,29.92,29.82,10,9,4,15,6,23,0.00,1,Snow,263
2014-1-8,2,-14,-29,-10,-23,-38,78,69,57,30.34,30.22,30.08,10,10,4,8,1,,0.00,0,Snow,259
2014-1-9,14,-8,-29,14,-13,-38,98,65,44,30.34,30.17,29.94,10,10,4,13,2,20,0.00,3,,194
2014-1-10,25,20,14,26,21,14,100,98,94,29.94,29.71,29.39,5,3,0,10,3,,0.00,8,Snow,194
2014-1-11,28,26,24,27,25,24,100,97,90,29.55,29.41,29.32,10,6,1,14,3,20,0.00,8,Snow,289
2014-1-12,34,28,22,28,25,22,99,87,71,29.58,29.46,29.36,10,9,5,13,5,21,0.04,4,,214
2014-1-13,31,26,22,29,22,14,100,82,64,29.57,29.47,29.39,10,10,7,16,4,22,0.00,6,,283
2014-1-14,22,18,13,15,11,6,81,76,67,29.84,29.67,29.56,10,9,2,18,7,25,0.00,8,Snow,7
2014-1-15,12,8,5,7,3,-2,82,75,67,29.89,29.75,29.38,10,7,1,18,10,24,0.00,8,Snow,259
2014-1-16,25,17,9,25,12,4,96,85,77,29.57,29.38,29.26,10,6,1,16,6,20,0.00,8,Snow,271
2014-1-17,18,13,7,14,8,4,86,78,70,29.84,29.74,29.57,10,6,2,16,8,25,0.00,8,Snow,346
2014-1-18,17,9,1,10,4,-4,86,80,61,29.78,29.72,29.51,10,9,2,13,1,16,0.03,5,Snow,232
2014-1-19,26,16,5,21,15,1,99,84,76,29.60,29.43,29.35,10,9,2,20,12,26,0.00,8,Snow,299
2014-1-20,6,2,-2,2,-6,-10,82,70,58,30.16,29.92,29.60,10,9,5,15,6,20,0.00,7,Snow,3
2014-1-21,2,-4,-9,-9,-13,-15,77,66,46,30.20,30.11,29.92,10,9,3,14,6,22,0.00,6,Snow,276
2014-1-22,1,0,-2,-6,-8,-12,77,71,57,30.08,29.85,29.75,10,4,1,17,8,24,0.00,8,Snow,297
2014-1-23,1,-5,-11,-7,-12,-19,78,68,53,30.41,30.29,30.07,10,9,4,20,11,26,0.00,4,,305
2014-1-24,22,6,-10,19,3,-18,87,77,58,30.05,29.51,29.20,10,5,1,20,11,31,0.00,8,Snow,241
2014-1-25,18,3,-12,14,-8,-18,83,69,57,29.61,29.49,29.25,10,5,0,23,14,37,0.00,6,Snow,311
2014-1-26,4,-2,-9,-2,-8,-15,78,73,64,29.65,29.37,29.17,10,4,1,20,4,28,0.00,8,Snow,291
2014-1-27,-4,-10,-16,-11,-21,-27,74,62,52,30.09,29.96,29.66,10,8,1,20,13,28,0.00,3,Snow,287
2014-1-28,-2,-13,-24,-15,-21,-31,72,63,54,30.08,29.96,29.80,10,10,7,20,11,26,0.00,2,,255
2014-1-29,21,6,-8,7,-7,-16,71,56,35,29.83,29.73,29.53,10,10,10,17,11,26,0.00,3,,229
2014-1-30,22,11,0,21,9,-7,96,76,56,29.79,29.55,29.43,10,6,0,14,8,23,0.00,5,Snow,289
2014-1-31,5,-6,-17,-5,-12,-23,81,70,57,29.97,29.91,29.79,10,10,7,10,5,16,0.00,0,,251